Clima Ilopango International Airport
Parcialmente nublado
Currently
Parcialmente nublado
Hoy se prevé un día Más cálido que ayer.
Parcialmente nublado
Hoy
03/24 0%
Parcialmente nublado
Cielo parcialmente cubierto. Máxima de 33 C. Vientos del N de 10 a 15 km/h.
High 33° / Low 16°
Despejado
Mañana
03/25 0%
Despejado
Cielo mayormente despejado. Máxima de 34 C. Vientos del NNE de 10 a 15 km/h.
High 33° / Low 18°
METAR
MSSS 240925Z 2412/2512 34006KT 9999 SCT033 TX32/2420Z TN20/2512Z FM242000 18008KT FM250200 34005KT 9999 SCT043
TAF
MSSS 240925Z 2412/2512 34006KT 9999 SCT033 TX32/2420Z TN20/2512Z FM242000 18008KT FM250200 34005KT 9999 SCT043

Cámaras Aeroclub

Norte

Este

Sur

Oeste

AIS/AIP El Salvador

Autoridad de Aviación Civil (AAC) El Salvador

VER DOCUMENTO